Time;durP1;ratioP1;P1;durP2;ratioP2;P2;SDS_P1;SDS_P2;PMS_P1;PMS_P2;Temp;Humidity;BMP_temperature;BMP_pressure;BME280_temperature;BME280_humidity;BME280_pressure;Samples;Min_cycle;Max_cycle;Signal;HPM_P1;HPM_P2
2022/01/01 00:01:29;;;;;;;21.33;15.30;;;13.30;1.00;;;;;;5066633;28;20249;-60
2022/01/01 00:03:56;;;;;;;22.97;14.90;;;13.30;1.00;;;;;;5077632;28;20205;-59
2022/01/01 00:06:23;;;;;;;23.70;16.03;;;13.30;1.00;;;;;;5079471;28;20466;-60
2022/01/01 00:08:50;;;;;;;20.60;15.27;;;13.30;1.00;;;;;;5076275;28;20186;-60
2022/01/01 00:11:17;;;;;;;23.07;16.00;;;13.20;1.00;;;;;;5078902;28;20305;-60
2022/01/01 00:13:51;;;;;;;23.97;16.67;;;13.20;1.00;;;;;;5059571;28;21725;-60
2022/01/01 00:16:19;;;;;;;25.20;16.83;;;13.30;1.00;;;;;;5074359;28;20371;-60
2022/01/01 00:18:46;;;;;;;24.40;17.77;;;13.20;1.00;;;;;;5076157;28;20251;-60
2022/01/01 00:21:13;;;;;;;28.92;17.05;;;13.20;1.00;;;;;;5045992;28;20226;-60
2022/01/01 00:23:40;;;;;;;21.40;17.27;;;13.20;1.00;;;;;;5065912;28;20205;-60
2022/01/01 00:26:07;;;;;;;21.03;17.17;;;13.20;1.00;;;;;;5075760;28;20194;-60
2022/01/01 00:28:34;;;;;;;23.98;17.65;;;13.20;1.00;;;;;;5075930;28;20194;-60
2022/01/01 00:31:01;;;;;;;25.47;18.87;;;13.20;1.00;;;;;;5075992;28;20239;-60
2022/01/01 00:33:29;;;;;;;26.57;17.03;;;13.20;1.00;;;;;;5078029;28;20197;-60
2022/01/01 00:35:56;;;;;;;26.00;17.92;;;13.20;1.00;;;;;;5068362;28;20670;-60
2022/01/01 00:38:24;;;;;;;25.05;17.23;;;13.20;1.00;;;;;;5079778;28;20210;-60
2022/01/01 00:40:54;;;;;;;31.63;19.23;;;13.20;1.00;;;;;;5078272;28;20206;-60
2022/01/01 00:43:21;;;;;;;28.00;18.17;;;13.30;1.00;;;;;;5059173;28;20949;-60
2022/01/01 00:45:48;;;;;;;25.97;18.17;;;13.20;1.00;;;;;;5061984;28;21652;-60
2022/01/01 00:48:17;;;;;;;30.13;19.08;;;13.20;1.00;;;;;;5075233;28;20186;-59
2022/01/01 00:50:44;;;;;;;26.17;19.30;;;13.20;1.00;;;;;;5058726;28;20281;-59
2022/01/01 00:53:11;;;;;;;27.30;19.93;;;13.20;1.00;;;;;;5078321;28;20217;-60
2022/01/01 00:55:38;;;;;;;33.70;20.00;;;13.20;1.00;;;;;;5079169;28;20265;-60
2022/01/01 00:58:05;;;;;;;27.87;18.70;;;13.20;1.00;;;;;;5080187;28;20255;-60
2022/01/01 01:00:32;;;;;;;29.20;20.53;;;13.20;1.00;;;;;;5059916;28;20275;-60
2022/01/01 01:03:00;;;;;;;34.63;19.67;;;13.20;1.00;;;;;;5064717;28;20221;-60
2022/01/01 01:05:27;;;;;;;31.80;21.13;;;13.20;1.00;;;;;;5061702;28;20190;-60
2022/01/01 01:07:54;;;;;;;29.27;20.90;;;13.10;1.00;;;;;;5076799;28;20198;-59
2022/01/01 01:10:21;;;;;;;28.50;21.10;;;13.20;1.00;;;;;;5054692;28;20202;-60
2022/01/01 01:12:48;;;;;;;27.63;19.93;;;13.10;1.00;;;;;;5075980;28;20295;-60
2022/01/01 01:15:19;;;;;;;29.03;20.13;;;13.10;1.00;;;;;;5074140;28;20199;-60
2022/01/01 01:17:48;;;;;;;28.37;19.00;;;13.10;1.00;;;;;;5076763;28;20183;-60
2022/01/01 01:20:17;;;;;;;28.60;19.07;;;13.10;1.00;;;;;;5070213;28;20236;-59
2022/01/01 01:22:44;;;;;;;28.57;18.00;;;13.10;1.00;;;;;;5077217;28;20276;-60
2022/01/01 01:25:12;;;;;;;26.60;19.03;;;13.10;1.00;;;;;;5076741;28;20256;-60
2022/01/01 01:27:40;;;;;;;32.83;18.97;;;13.10;1.00;;;;;;5075317;28;20204;-59
2022/01/01 01:30:11;;;;;;;30.43;18.93;;;13.10;1.00;;;;;;5063479;28;20585;-59
2022/01/01 01:32:38;;;;;;;28.47;17.73;;;13.00;1.00;;;;;;5079107;28;20659;-60
2022/01/01 01:35:06;;;;;;;30.10;18.80;;;13.10;1.00;;;;;;5078663;28;20217;-60
2022/01/01 01:37:33;;;;;;;25.90;17.47;;;13.10;1.00;;;;;;5059889;28;20201;-60
2022/01/01 01:40:00;;;;;;;29.77;18.63;;;13.10;1.00;;;;;;5078883;28;20195;-60
2022/01/01 01:42:29;;;;;;;27.80;18.10;;;13.00;1.00;;;;;;5077218;28;20233;-60
2022/01/01 01:44:56;;;;;;;28.03;17.43;;;13.10;1.00;;;;;;5060495;28;20654;-60
2022/01/01 01:47:34;;;;;;;33.87;17.70;;;13.10;1.00;;;;;;5080181;28;20243;-60
2022/01/01 01:50:05;;;;;;;27.07;17.37;;;13.10;1.00;;;;;;5081082;28;20207;-60
2022/01/01 01:52:35;;;;;;;26.43;16.37;;;13.10;1.00;;;;;;5082238;28;20195;-60
2022/01/01 01:55:05;;;;;;;26.93;16.90;;;13.10;1.00;;;;;;5080656;28;20190;-61
2022/01/01 01:57:41;;;;;;;30.57;16.80;;;13.10;1.00;;;;;;5081129;28;20201;-60
2022/01/01 02:03:00;;;;;;;24.30;15.30;;;13.10;1.00;;;;;;5084804;28;20202;-60
2022/01/01 02:05:27;;;;;;;34.20;16.30;;;13.00;1.00;;;;;;5083092;28;20218;-60
2022/01/01 02:07:57;;;;;;;30.97;15.97;;;13.10;1.00;;;;;;5066027;28;20285;-60
2022/01/01 02:10:24;;;;;;;27.40;16.90;;;13.10;1.00;;;;;;5062373;28;20223;-59
2022/01/01 02:12:54;;;;;;;23.83;15.17;;;13.10;1.00;;;;;;5066077;28;20542;-60
2022/01/01 02:18:17;;;;;;;32.33;17.67;;;13.00;1.00;;;;;;5081491;28;20638;-60
2022/01/01 02:20:49;;;;;;;29.43;18.93;;;13.00;1.00;;;;;;5086023;28;20214;-60
2022/01/01 02:23:17;;;;;;;26.40;15.80;;;13.00;1.00;;;;;;5082785;28;20252;-59
2022/01/01 02:25:47;;;;;;;29.13;15.47;;;13.00;1.00;;;;;;5082138;28;20225;-59
2022/01/01 02:28:15;;;;;;;27.20;14.63;;;13.00;1.00;;;;;;5082533;28;20201;-59
2022/01/01 02:30:42;;;;;;;28.53;16.63;;;13.00;1.00;;;;;;5084549;28;20190;-59
2022/01/01 02:33:09;;;;;;;30.50;18.13;;;13.00;1.00;;;;;;5067984;28;20311;-59
2022/01/01 02:35:36;;;;;;;25.13;16.13;;;13.00;1.00;;;;;;5059936;28;20668;-60
2022/01/01 02:38:03;;;;;;;28.27;15.80;;;12.90;1.00;;;;;;5083321;28;20194;-59
2022/01/01 02:40:30;;;;;;;28.27;15.70;;;13.00;1.00;;;;;;5061471;28;20194;-59
2022/01/01 02:42:57;;;;;;;30.60;14.13;;;12.90;1.00;;;;;;5081694;28;20209;-60
2022/01/01 02:45:24;;;;;;;25.27;13.27;;;13.00;1.00;;;;;;5079506;28;20199;-60
2022/01/01 02:47:51;;;;;;;25.17;12.90;;;12.90;1.00;;;;;;5082532;28;20194;-60
2022/01/01 02:50:19;;;;;;;30.43;15.97;;;13.00;1.00;;;;;;5085107;28;20202;-60
2022/01/01 02:52:50;;;;;;;25.87;13.40;;;12.90;1.00;;;;;;5084101;28;20210;-60
2022/01/01 02:55:17;;;;;;;28.13;14.27;;;13.00;1.00;;;;;;5073072;28;20274;-60
2022/01/01 02:57:44;;;;;;;23.37;13.13;;;12.90;1.00;;;;;;5062611;28;20251;-59
2022/01/01 03:00:11;;;;;;;29.50;13.67;;;12.90;1.00;;;;;;5061453;28;20285;-59
2022/01/01 03:02:39;;;;;;;23.47;13.03;;;12.90;1.00;;;;;;5086064;28;20589;-60
2022/01/01 03:05:08;;;;;;;27.03;13.90;;;12.90;1.00;;;;;;5080379;28;20225;-60
2022/01/01 03:07:36;;;;;;;30.80;15.90;;;12.90;1.00;;;;;;5079597;28;20255;-60
2022/01/01 03:10:04;;;;;;;24.87;12.50;;;12.90;1.00;;;;;;5083809;28;20572;-60
2022/01/01 03:12:31;;;;;;;24.63;13.57;;;12.90;1.00;;;;;;5081484;28;20214;-59
2022/01/01 03:14:59;;;;;;;26.13;12.47;;;12.90;1.00;;;;;;5084152;28;20229;-60
2022/01/01 03:17:26;;;;;;;21.77;11.90;;;12.90;1.00;;;;;;5084316;28;20198;-60
2022/01/01 03:19:54;;;;;;;26.90;12.77;;;12.90;1.00;;;;;;5085827;28;20189;-60
2022/01/01 03:22:21;;;;;;;23.47;12.07;;;12.90;1.00;;;;;;5088032;28;20206;-60
2022/01/01 03:24:48;;;;;;;27.17;11.43;;;12.90;1.00;;;;;;5070618;28;20194;-60
2022/01/01 03:27:15;;;;;;;26.80;11.30;;;12.90;1.00;;;;;;5088082;28;20202;-60
2022/01/01 03:29:42;;;;;;;21.27;11.93;;;12.80;1.00;;;;;;5086414;28;20244;-60
2022/01/01 03:32:09;;;;;;;20.87;11.87;;;12.90;1.00;;;;;;5085131;28;20255;-60
2022/01/01 03:34:36;;;;;;;25.90;11.50;;;12.90;1.00;;;;;;5090421;28;20186;-60
2022/01/01 03:37:03;;;;;;;27.10;11.87;;;12.90;1.00;;;;;;5068718;28;20206;-60
2022/01/01 03:39:30;;;;;;;21.80;10.67;;;12.80;1.00;;;;;;5071383;28;20657;-59
2022/01/01 03:41:57;;;;;;;23.23;11.73;;;12.90;1.00;;;;;;5086520;28;20560;-59
2022/01/01 03:44:24;;;;;;;25.03;12.53;;;12.80;1.00;;;;;;5088666;28;20233;-59
2022/01/01 03:46:58;;;;;;;28.93;12.37;;;12.80;1.00;;;;;;5088185;28;20187;-60
2022/01/01 03:49:25;;;;;;;26.90;12.30;;;12.80;1.00;;;;;;5070275;28;20202;-60
2022/01/01 03:51:52;;;;;;;23.00;11.60;;;12.80;1.00;;;;;;5086184;28;20553;-59
2022/01/01 03:54:20;;;;;;;22.27;12.27;;;12.90;1.00;;;;;;5066657;28;20263;-60
2022/01/01 03:56:47;;;;;;;28.30;12.23;;;12.80;1.00;;;;;;5089779;28;20202;-60
2022/01/01 03:59:14;;;;;;;30.00;14.13;;;12.80;1.00;;;;;;5088369;28;20218;-60
2022/01/01 04:01:41;;;;;;;28.63;13.27;;;12.80;1.00;;;;;;5090322;28;20233;-60
2022/01/01 04:04:08;;;;;;;23.73;11.77;;;12.80;1.00;;;;;;5089415;28;20198;-59
2022/01/01 04:06:35;;;;;;;23.50;11.83;;;12.80;1.00;;;;;;5090296;28;20183;-59
2022/01/01 04:09:03;;;;;;;22.17;10.67;;;12.80;1.00;;;;;;5085761;28;20580;-60
2022/01/01 04:11:30;;;;;;;22.27;10.83;;;12.80;1.00;;;;;;5090414;28;20322;-60
2022/01/01 04:13:57;;;;;;;24.67;12.53;;;12.80;1.00;;;;;;5088645;28;20223;-59
2022/01/01 04:16:26;;;;;;;26.33;12.40;;;12.80;1.00;;;;;;5080238;28;20203;-60
2022/01/01 04:18:53;;;;;;;24.10;11.50;;;12.80;1.00;;;;;;5061771;28;20206;-60
2022/01/01 04:21:20;;;;;;;22.37;11.03;;;12.80;1.00;;;;;;5081658;28;20216;-60
2022/01/01 04:23:47;;;;;;;23.30;13.37;;;12.80;1.00;;;;;;5085172;28;20263;-60
2022/01/01 04:26:14;;;;;;;23.60;11.07;;;12.80;1.00;;;;;;5068285;28;20194;-60
2022/01/01 04:28:41;;;;;;;22.17;10.60;;;12.90;1.00;;;;;;5086979;28;20186;-60
2022/01/01 04:31:08;;;;;;;30.10;11.80;;;12.90;1.00;;;;;;5067212;28;20251;-61
2022/01/01 04:33:36;;;;;;;26.07;11.37;;;12.90;1.00;;;;;;5067926;28;20255;-60
2022/01/01 04:36:03;;;;;;;19.73;9.77;;;12.90;1.00;;;;;;5088224;28;20198;-60
2022/01/01 04:38:36;;;;;;;24.47;11.27;;;12.90;1.00;;;;;;5067274;28;20272;-60
2022/01/01 04:41:05;;;;;;;29.87;18.60;;;12.90;1.00;;;;;;5071798;28;20206;-60
2022/01/01 04:43:32;;;;;;;30.33;15.97;;;12.80;1.00;;;;;;5086774;28;20270;-60
2022/01/01 04:45:59;;;;;;;28.50;12.30;;;12.80;1.00;;;;;;5066820;28;20771;-60
2022/01/01 04:48:26;;;;;;;29.43;14.83;;;12.80;1.00;;;;;;5087475;28;20205;-60
2022/01/01 04:50:53;;;;;;;28.13;14.17;;;12.80;1.00;;;;;;5088804;28;20768;-60
2022/01/01 04:53:20;;;;;;;33.60;17.47;;;12.80;1.00;;;;;;5067335;28;20572;-60
2022/01/01 04:55:48;;;;;;;25.87;12.23;;;12.80;1.00;;;;;;5086319;28;20220;-60
2022/01/01 04:58:16;;;;;;;27.07;11.97;;;12.90;1.00;;;;;;5088465;28;20251;-60
2022/01/01 05:00:43;;;;;;;23.50;11.70;;;12.90;1.00;;;;;;5065758;28;20240;-60
2022/01/01 05:03:10;;;;;;;26.77;14.37;;;12.90;1.00;;;;;;5086845;28;20214;-60
2022/01/01 05:05:38;;;;;;;28.07;14.03;;;12.90;1.00;;;;;;5087349;28;20611;-60
2022/01/01 05:08:05;;;;;;;23.27;13.40;;;12.80;1.00;;;;;;5052080;28;20202;-59
2022/01/01 05:10:32;;;;;;;27.00;13.50;;;12.90;1.00;;;;;;5087223;28;20231;-59
2022/01/01 05:12:59;;;;;;;22.40;13.43;;;12.90;1.00;;;;;;5069046;28;20198;-60
2022/01/01 05:15:26;;;;;;;28.20;13.20;;;12.90;99.90;;;;;;5059032;28;20298;-60
2022/01/01 05:17:53;;;;;;;25.80;15.10;;;12.90;1.00;;;;;;5085588;28;20194;-60
2022/01/01 05:20:20;;;;;;;31.10;15.50;;;12.90;1.00;;;;;;5050599;28;20279;-60
2022/01/01 05:22:47;;;;;;;21.73;11.70;;;12.90;1.00;;;;;;5084724;28;20218;-60
2022/01/01 05:25:14;;;;;;;27.07;13.80;;;12.90;1.00;;;;;;5061729;28;20190;-60
2022/01/01 05:27:42;;;;;;;28.20;12.97;;;12.90;99.90;;;;;;5088750;28;20247;-60
2022/01/01 05:30:10;;;;;;;31.77;15.97;;;12.90;1.00;;;;;;5091618;28;20194;-59
2022/01/01 05:32:37;;;;;;;28.70;15.60;;;12.80;1.00;;;;;;5088180;28;20222;-60
2022/01/01 05:35:05;;;;;;;29.03;14.50;;;12.90;1.00;;;;;;5091856;28;20206;-60
2022/01/01 05:37:32;;;;;;;33.23;16.30;;;12.80;1.00;;;;;;5089207;28;20294;-60
2022/01/01 05:39:59;;;;;;;27.93;12.10;;;12.80;1.00;;;;;;5089076;28;20225;-60
2022/01/01 05:42:28;;;;;;;34.03;16.93;;;12.80;1.00;;;;;;5092195;28;20240;-60
2022/01/01 05:44:55;;;;;;;36.53;16.10;;;12.80;1.00;;;;;;5092278;28;20292;-60
2022/01/01 05:47:22;;;;;;;27.20;14.83;;;12.80;1.00;;;;;;5072841;28;20236;-60
2022/01/01 05:49:49;;;;;;;24.10;12.20;;;12.80;1.00;;;;;;5089724;28;21093;-60
2022/01/01 05:52:16;;;;;;;27.50;12.20;;;12.90;1.00;;;;;;5092011;28;20190;-59
2022/01/01 05:54:43;;;;;;;29.60;11.50;;;12.80;99.90;;;;;;5090921;28;20586;-60
2022/01/01 05:57:10;;;;;;;22.73;11.10;;;12.80;99.90;;;;;;5090990;28;20243;-60
2022/01/01 05:59:40;;;;;;;19.07;10.47;;;12.80;99.90;;;;;;5092649;28;20255;-60
2022/01/01 06:02:08;;;;;;;21.13;10.23;;;12.80;99.90;;;;;;5075917;28;20214;-60
2022/01/01 06:04:35;;;;;;;21.13;10.17;;;12.80;99.90;;;;;;5100510;28;20196;-60
2022/01/01 06:07:03;;;;;;;28.63;11.03;;;12.90;99.90;;;;;;5094622;28;20211;-60
2022/01/01 06:09:30;;;;;;;19.43;9.93;;;12.80;99.90;;;;;;5092404;28;21084;-60
2022/01/01 06:11:57;;;;;;;21.50;10.00;;;12.90;99.90;;;;;;5091274;28;20616;-60
2022/01/01 06:14:24;;;;;;;23.93;10.20;;;12.80;99.90;;;;;;5072085;28;20228;-60
2022/01/01 06:16:51;;;;;;;21.50;9.77;;;12.80;99.90;;;;;;5092305;28;20194;-60
2022/01/01 06:19:18;;;;;;;22.87;10.20;;;12.90;99.90;;;;;;5090392;28;20243;-60
2022/01/01 06:21:45;;;;;;;23.17;10.10;;;12.90;99.90;;;;;;5083067;28;20612;-60
2022/01/01 06:24:13;;;;;;;21.53;10.40;;;12.90;99.90;;;;;;5089613;28;20269;-60
2022/01/01 06:26:39;;;;;;;18.83;10.37;;;12.90;99.90;;;;;;5071302;28;20198;-60
2022/01/01 06:29:07;;;;;;;22.43;9.43;;;12.90;99.90;;;;;;5087459;28;20221;-60
2022/01/01 06:31:33;;;;;;;22.00;10.33;;;12.90;99.90;;;;;;5088318;28;20226;-60
2022/01/01 06:34:01;;;;;;;20.13;9.43;;;12.90;99.90;;;;;;5091141;28;20202;-59
2022/01/01 06:36:28;;;;;;;18.33;8.90;;;12.90;99.90;;;;;;5092127;28;20187;-59
2022/01/01 06:38:54;;;;;;;20.38;9.50;;;12.90;99.90;;;;;;5072306;28;20194;-60
2022/01/01 06:41:24;;;;;;;16.00;9.10;;;12.90;99.90;;;;;;5090570;28;20190;-60
2022/01/01 06:43:52;;;;;;;19.10;9.50;;;12.90;99.90;;;;;;5086940;28;20277;-60
2022/01/01 06:46:19;;;;;;;19.17;8.57;;;12.90;99.90;;;;;;5090663;28;20198;-60
2022/01/01 06:48:47;;;;;;;17.07;9.27;;;12.90;95.80;;;;;;5088251;28;20228;-60
2022/01/01 06:51:14;;;;;;;18.77;8.67;;;12.90;99.90;;;;;;5073101;28;20255;-60
2022/01/01 06:53:42;;;;;;;18.87;8.70;;;12.90;86.20;;;;;;5089030;28;20216;-60
2022/01/01 06:56:09;;;;;;;16.77;8.53;;;12.90;90.60;;;;;;5091903;28;20187;-60
2022/01/01 06:58:38;;;;;;;25.73;9.40;;;12.90;99.90;;;;;;5069243;28;20626;-59
2022/01/01 07:01:05;;;;;;;16.53;7.77;;;12.90;75.00;;;;;;5087184;28;20248;-60
2022/01/01 07:03:33;;;;;;;17.43;8.80;;;12.90;54.10;;;;;;5071496;28;20203;-60
2022/01/01 07:06:00;;;;;;;17.23;7.63;;;13.00;41.40;;;;;;5091577;28;20223;-60
2022/01/01 07:08:27;;;;;;;17.20;7.93;;;13.00;27.20;;;;;;5073991;28;20226;-60
2022/01/01 07:10:55;;;;;;;16.77;8.03;;;13.00;27.50;;;;;;5069436;28;20240;-59
2022/01/01 07:13:22;;;;;;;17.50;7.80;;;13.00;11.80;;;;;;5088338;28;20190;-59
2022/01/01 07:15:49;;;;;;;15.90;6.83;;;13.00;20.40;;;;;;5092108;28;20196;-60
2022/01/01 07:18:16;;;;;;;17.17;8.13;;;12.90;29.00;;;;;;5072438;28;20208;-59
2022/01/01 07:20:43;;;;;;;16.57;6.67;;;12.90;45.20;;;;;;5084834;28;20333;-60
2022/01/01 07:23:11;;;;;;;16.47;7.97;;;12.90;20.50;;;;;;5087109;28;20213;-60
2022/01/01 07:25:38;;;;;;;15.63;7.10;;;12.90;27.90;;;;;;5089006;28;20221;-59
2022/01/01 07:28:05;;;;;;;13.67;7.27;;;12.90;7.00;;;;;;5070103;28;20301;-60
2022/01/01 07:30:32;;;;;;;12.93;6.70;;;12.90;9.60;;;;;;5088697;28;20332;-60
2022/01/01 07:32:59;;;;;;;17.90;6.67;;;12.90;16.00;;;;;;5068914;28;20239;-60
2022/01/01 07:35:26;;;;;;;15.80;6.73;;;12.90;19.00;;;;;;5070818;28;20194;-60
2022/01/01 07:37:53;;;;;;;15.03;6.77;;;12.90;2.90;;;;;;5067918;28;20252;-60
2022/01/01 07:40:20;;;;;;;14.73;7.20;;;12.90;1.00;;;;;;5067920;28;20226;-60
2022/01/01 07:42:48;;;;;;;13.90;6.40;;;12.90;1.00;;;;;;5068693;28;20245;-60
2022/01/01 07:45:15;;;;;;;21.07;6.60;;;12.90;1.00;;;;;;5070274;28;20286;-60
2022/01/01 07:47:42;;;;;;;13.55;6.32;;;13.00;1.00;;;;;;5067684;28;20598;-60
2022/01/01 07:50:10;;;;;;;12.57;6.60;;;13.00;1.00;;;;;;5068112;28;20199;-60
2022/01/01 07:52:38;;;;;;;19.20;6.57;;;13.00;1.00;;;;;;5070977;28;20199;-60
2022/01/01 07:55:06;;;;;;;18.17;6.50;;;13.00;1.00;;;;;;5065002;28;20556;-60
2022/01/01 07:57:33;;;;;;;13.87;6.00;;;13.00;1.00;;;;;;5066144;28;20198;-60
2022/01/01 08:00:00;;;;;;;12.43;5.97;;;13.00;1.00;;;;;;5066122;28;20252;-60
2022/01/01 08:02:30;;;;;;;12.97;5.37;;;13.10;1.00;;;;;;5068287;28;20218;-60
2022/01/01 08:04:57;;;;;;;17.90;5.63;;;13.10;1.00;;;;;;5065080;28;20199;-60
2022/01/01 08:07:24;;;;;;;11.38;5.03;;;13.10;1.00;;;;;;5068873;28;20695;-60
2022/01/01 08:10:12;;;;;;;11.20;5.50;;;13.20;1.00;;;;;;5066632;28;20194;-60
2022/01/01 08:12:43;;;;;;;12.73;5.23;;;13.20;1.00;;;;;;5067758;28;20662;-60
2022/01/01 08:15:10;;;;;;;14.60;6.70;;;13.20;1.00;;;;;;5065550;28;20193;-60
2022/01/01 08:17:37;;;;;;;13.57;5.03;;;13.20;1.00;;;;;;5066810;28;20662;-60
2022/01/01 08:20:05;;;;;;;17.10;6.20;;;13.30;1.00;;;;;;5067859;28;20199;-60
2022/01/01 08:22:32;;;;;;;15.57;8.95;;;13.30;1.00;;;;;;5060857;28;20642;-60
2022/01/01 08:25:01;;;;;;;14.38;7.55;;;13.20;1.00;;;;;;5066599;28;20274;-60
2022/01/01 08:27:27;;;;;;;11.50;6.18;;;13.30;1.00;;;;;;5068056;28;20195;-60
2022/01/01 08:29:55;;;;;;;14.67;6.90;;;13.20;1.00;;;;;;5065047;28;20276;-59
2022/01/01 08:32:22;;;;;;;13.83;6.73;;;13.20;1.00;;;;;;5077963;28;21002;-60
2022/01/01 08:34:50;;;;;;;10.10;5.40;;;13.30;1.00;;;;;;5088579;28;20227;-61
2022/01/01 08:37:18;;;;;;;12.60;5.13;;;13.30;1.00;;;;;;5085799;28;20210;-61
2022/01/01 08:39:45;;;;;;;14.43;6.22;;;13.30;1.00;;;;;;5066948;28;20294;-61
2022/01/01 08:42:12;;;;;;;14.03;6.03;;;13.30;1.00;;;;;;5087808;28;20252;-60
2022/01/01 08:44:39;;;;;;;12.43;5.50;;;13.30;1.00;;;;;;5086453;28;20281;-61
2022/01/01 08:47:06;;;;;;;14.55;5.68;;;13.40;1.00;;;;;;5087378;28;20249;-60
2022/01/01 08:49:33;;;;;;;20.47;8.40;;;13.40;1.00;;;;;;5085755;28;20688;-60
2022/01/01 08:52:00;;;;;;;12.23;5.57;;;13.40;1.00;;;;;;5071180;28;20257;-60
2022/01/01 08:54:27;;;;;;;11.00;6.60;;;13.50;1.00;;;;;;5079574;28;20259;-61
2022/01/01 08:56:55;;;;;;;30.77;18.40;;;13.50;1.00;;;;;;5087700;28;20725;-60
2022/01/01 08:59:22;;;;;;;21.60;7.93;;;13.50;1.00;;;;;;5089221;28;20194;-60
2022/01/01 09:01:49;;;;;;;13.15;5.57;;;13.50;1.00;;;;;;5089667;28;20225;-61
2022/01/01 09:04:16;;;;;;;11.55;5.55;;;13.50;1.00;;;;;;5070020;28;20214;-60
2022/01/01 09:06:43;;;;;;;12.47;5.23;;;13.50;1.00;;;;;;5085358;28;20255;-60
2022/01/01 09:09:15;;;;;;;14.50;4.93;;;13.50;1.00;;;;;;5082681;28;20210;-60
2022/01/01 09:11:42;;;;;;;14.82;5.35;;;13.60;1.00;;;;;;5086602;28;20269;-61
2022/01/01 09:14:10;;;;;;;15.02;5.68;;;13.60;1.00;;;;;;5052230;28;20554;-60
2022/01/01 09:16:37;;;;;;;13.35;5.70;;;13.50;1.00;;;;;;5083680;28;20259;-60
2022/01/01 09:19:05;;;;;;;16.00;5.13;;;13.50;1.00;;;;;;5069257;28;20230;-60
2022/01/01 09:21:32;;;;;;;13.87;5.60;;;13.50;1.00;;;;;;5069617;28;20242;-60
2022/01/01 09:23:59;;;;;;;16.13;7.17;;;13.50;1.00;;;;;;5069538;28;20324;-60
2022/01/01 09:26:29;;;;;;;10.27;4.97;;;13.50;1.00;;;;;;5067987;28;20190;-60
2022/01/01 09:28:56;;;;;;;12.73;5.27;;;13.60;1.00;;;;;;5087430;28;20202;-60
2022/01/01 09:31:23;;;;;;;13.50;4.70;;;13.60;1.00;;;;;;5069024;28;20230;-61
2022/01/01 09:33:53;;;;;;;12.43;5.03;;;13.60;1.00;;;;;;5085442;28;20198;-60
2022/01/01 09:36:21;;;;;;;14.27;4.40;;;13.60;1.00;;;;;;5087517;28;20575;-60
2022/01/01 09:38:48;;;;;;;9.97;4.13;;;13.70;1.00;;;;;;5069332;28;20266;-60
2022/01/01 09:41:15;;;;;;;7.80;4.03;;;13.60;1.00;;;;;;5084606;28;20228;-60
2022/01/01 09:43:44;;;;;;;12.40;4.15;;;13.70;1.00;;;;;;5087191;28;20556;-60
2022/01/01 09:46:14;;;;;;;9.07;4.27;;;13.80;1.00;;;;;;5087060;28;20296;-60
2022/01/01 09:48:54;;;;;;;12.93;4.27;;;13.90;1.00;;;;;;5085244;28;20277;-60
2022/01/01 09:51:21;;;;;;;10.82;4.25;;;14.20;99.90;;;;;;5087573;28;21050;-60
2022/01/01 09:53:48;;;;;;;11.70;3.72;;;14.40;99.90;;;;;;5066304;28;20235;-60
2022/01/01 09:56:15;;;;;;;10.07;4.10;;;14.70;99.90;;;;;;5084995;28;20213;-60
2022/01/01 09:58:45;;;;;;;10.25;3.67;;;15.10;99.90;;;;;;5087305;28;20715;-60
2022/01/01 10:01:12;;;;;;;12.55;3.85;;;15.30;96.60;;;;;;5071027;28;20202;-61
2022/01/01 10:03:42;;;;;;;10.70;4.03;;;15.20;99.90;;;;;;5087176;28;20214;-60
2022/01/01 10:06:12;;;;;;;9.85;3.58;;;15.20;99.20;;;;;;5087721;28;20190;-62
2022/01/01 10:08:48;;;;;;;11.63;3.50;;;15.40;40.00;;;;;;5063708;28;20207;-59
2022/01/01 10:11:19;;;;;;;10.52;3.60;;;15.50;1.00;;;;;;5085022;28;20190;-60
2022/01/01 10:13:46;;;;;;;13.13;3.17;;;15.60;1.00;;;;;;5087706;28;20261;-62
2022/01/01 10:16:14;;;;;;;15.95;3.35;;;15.90;1.00;;;;;;5089178;28;20194;-61
2022/01/01 10:18:53;;;;;;;9.07;3.42;;;15.70;1.00;;;;;;5088934;28;20256;-61
2022/01/01 10:21:27;;;;;;;7.07;2.97;;;15.60;1.00;;;;;;5089469;28;20276;-60
2022/01/01 10:23:58;;;;;;;7.80;2.95;;;16.60;1.00;;;;;;5070376;28;20205;-60
2022/01/01 10:29:16;;;;;;;9.70;2.85;;;15.90;1.00;;;;;;5089047;28;20202;-60
2022/01/01 10:31:59;;;;;;;7.88;2.75;;;15.60;1.00;;;;;;5091206;28;20238;-60
2022/01/01 10:34:34;;;;;;;8.10;2.70;;;15.60;1.00;;;;;;5086020;28;20194;-60
2022/01/01 10:37:28;;;;;;;10.52;3.70;;;15.30;1.00;;;;;;5050894;28;20297;-60
2022/01/01 10:39:57;;;;;;;10.88;3.17;;;15.10;18.70;;;;;;5091536;28;20551;-59
2022/01/01 10:42:24;;;;;;;8.55;2.80;;;15.00;46.10;;;;;;5091129;28;20223;-59
2022/01/01 10:44:53;;;;;;;12.43;3.13;;;15.00;43.40;;;;;;5088733;28;20760;-59
2022/01/01 10:47:28;;;;;;;7.82;3.03;;;14.80;42.90;;;;;;5092184;28;20661;-59
2022/01/01 10:52:32;;;;;;;7.25;3.03;;;14.80;54.00;;;;;;5070885;28;21086;-60
2022/01/01 10:55:08;;;;;;;9.38;3.17;;;14.80;72.00;;;;;;5090910;28;20194;-61
2022/01/01 10:58:02;;;;;;;6.13;2.47;;;14.80;75.20;;;;;;5074105;28;20190;-61
2022/01/01 11:00:29;;;;;;;9.38;2.92;;;14.80;31.40;;;;;;5081869;28;20259;-60
2022/01/01 11:02:58;;;;;;;6.03;2.80;;;14.90;27.80;;;;;;5090358;28;20305;-62
2022/01/01 11:05:30;;;;;;;8.63;2.70;;;14.90;49.90;;;;;;5090553;28;20609;-60
2022/01/01 11:07:58;;;;;;;8.70;2.92;;;14.90;45.70;;;;;;5065636;28;20362;-61
2022/01/01 11:10:26;;;;;;;7.68;2.58;;;15.00;41.90;;;;;;5086632;28;20191;-60
2022/01/01 11:12:59;;;;;;;8.75;3.17;;;15.20;1.00;;;;;;5086814;28;20243;-60
2022/01/01 11:15:27;;;;;;;10.20;3.40;;;15.30;1.00;;;;;;5089053;28;20283;-60
2022/01/01 11:17:56;;;;;;;9.35;2.75;;;15.30;1.00;;;;;;5069927;28;20221;-61
2022/01/01 11:20:25;;;;;;;9.68;3.13;;;15.20;1.00;;;;;;5085111;28;20214;-61
2022/01/01 11:22:52;;;;;;;10.02;3.22;;;15.10;1.00;;;;;;5090132;28;20690;-61
2022/01/01 11:25:19;;;;;;;5.22;2.22;;;15.20;1.00;;;;;;5067465;28;20263;-61
2022/01/01 11:27:47;;;;;;;7.95;2.78;;;15.30;1.00;;;;;;5088314;28;20259;-60
2022/01/01 11:30:16;;;;;;;9.07;2.30;;;15.60;1.00;;;;;;5088742;28;20232;-61
2022/01/01 11:32:55;;;;;;;7.88;2.85;;;16.00;1.00;;;;;;5088596;28;20230;-61
2022/01/01 11:35:58;;;;;;;7.40;2.50;;;16.60;1.00;;;;;;5072269;28;20652;-60
2022/01/01 11:38:27;;;;;;;5.82;2.72;;;17.40;1.00;;;;;;5017349;28;20556;-60
2022/01/01 11:41:05;;;;;;;6.47;2.58;;;17.90;1.00;;;;;;5073960;28;20289;-62
2022/01/01 11:43:51;;;;;;;9.07;2.65;;;18.40;1.00;;;;;;5088545;28;21212;-61
2022/01/01 11:46:27;;;;;;;8.50;2.60;;;19.20;99.90;;;;;;5086137;28;20247;-59
2022/01/01 11:48:55;;;;;;;5.47;2.25;;;19.70;99.90;;;;;;5086571;28;20178;-60
2022/01/01 11:51:32;;;;;;;11.05;3.08;;;19.50;99.90;;;;;;5089291;28;20210;-59
2022/01/01 11:54:08;;;;;;;6.35;2.25;;;19.90;99.90;;;;;;5089765;28;20644;-59
2022/01/01 11:56:49;;;;;;;6.40;2.25;;;20.00;99.90;;;;;;5089845;28;21202;-59
2022/01/01 11:59:38;;;;;;;4.63;1.98;;;19.50;99.90;;;;;;5089270;28;20233;-59
2022/01/01 12:02:23;;;;;;;6.05;2.17;;;19.50;99.90;;;;;;5092020;28;20190;-60
2022/01/01 12:04:55;;;;;;;7.18;2.53;;;18.80;99.90;;;;;;5088450;28;20241;-59
2022/01/01 12:07:24;;;;;;;8.73;2.47;;;17.80;99.90;;;;;;5089687;28;20216;-59
2022/01/01 12:12:43;;;;;;;6.47;2.00;;;17.30;1.00;;;;;;5089786;28;20186;-59
2022/01/01 12:15:26;;;;;;;5.93;2.22;;;17.00;1.00;;;;;;5067887;28;20618;-59
2022/01/01 12:18:00;;;;;;;6.88;2.03;;;17.20;1.00;;;;;;5086326;28;20190;-60
2022/01/01 12:20:33;;;;;;;5.00;2.17;;;17.60;1.00;;;;;;5084600;28;20301;-60
2022/01/01 12:23:28;;;;;;;6.53;2.25;;;17.70;1.00;;;;;;5085432;28;20243;-60
2022/01/01 12:25:55;;;;;;;10.15;2.20;;;18.30;99.90;;;;;;5083679;28;20268;-60
2022/01/01 12:28:28;;;;;;;5.63;2.10;;;18.90;99.90;;;;;;5089920;28;20197;-60
2022/01/01 12:31:12;;;;;;;5.88;1.80;;;19.10;99.90;;;;;;5086720;28;20190;-60
2022/01/01 12:33:59;;;;;;;5.40;2.22;;;18.80;99.90;;;;;;5091098;28;20198;-60
2022/01/01 12:36:31;;;;;;;5.38;2.00;;;18.10;99.90;;;;;;5088754;28;20220;-60
2022/01/01 12:39:04;;;;;;;3.30;1.80;;;18.10;99.90;;;;;;5088595;28;20182;-60
2022/01/01 12:41:39;;;;;;;4.80;1.95;;;18.00;99.90;;;;;;5087886;28;20209;-60
2022/01/01 12:44:31;;;;;;;8.02;2.83;;;17.60;99.90;;;;;;5088088;28;20270;-59
2022/01/01 12:46:59;;;;;;;7.18;2.17;;;17.80;99.90;;;;;;5088285;28;20265;-60
2022/01/01 12:49:27;;;;;;;5.40;1.88;;;17.70;99.90;;;;;;5087686;28;21086;-60
2022/01/01 12:51:56;;;;;;;5.25;1.70;;;17.80;99.90;;;;;;5087186;28;20199;-59
2022/01/01 12:54:28;;;;;;;6.18;2.20;;;17.60;99.90;;;;;;5087817;28;21113;-59
2022/01/01 12:56:59;;;;;;;5.93;2.67;;;17.60;99.90;;;;;;5088740;28;20619;-60
2022/01/01 12:59:26;;;;;;;6.72;2.40;;;17.50;99.90;;;;;;5065347;28;20532;-60
2022/01/01 13:02:00;;;;;;;4.45;2.03;;;17.20;1.00;;;;;;5068848;28;20285;-60
2022/01/01 13:04:28;;;;;;;5.45;2.10;;;16.60;1.00;;;;;;5087461;28;20795;-59